sensor_id;sensor_type;location;lat;lon;timestamp;pressure;altitude;pressure_sealevel;temperature
47484;BMP280;54076;50.322;18.650;2023-12-20T00:02:22;98350.61;;;9.09
47484;BMP280;54076;50.322;18.650;2023-12-20T00:07:24;98345.21;;;9.03
47484;BMP280;54076;50.322;18.650;2023-12-20T00:12:25;98344.48;;;8.92
47484;BMP280;54076;50.322;18.650;2023-12-20T00:17:25;98308.61;;;8.88
47484;BMP280;54076;50.322;18.650;2023-12-20T00:22:26;98305.84;;;8.95
47484;BMP280;54076;50.322;18.650;2023-12-20T00:27:27;98319.13;;;9.08
47484;BMP280;54076;50.322;18.650;2023-12-20T00:32:28;98336.70;;;9.21
47484;BMP280;54076;50.322;18.650;2023-12-20T00:37:29;98323.63;;;9.19
47484;BMP280;54076;50.322;18.650;2023-12-20T00:42:30;98333.88;;;9.31
47484;BMP280;54076;50.322;18.650;2023-12-20T00:47:31;98285.74;;;9.35
47484;BMP280;54076;50.322;18.650;2023-12-20T00:52:32;98289.65;;;9.37
47484;BMP280;54076;50.322;18.650;2023-12-20T00:57:34;98291.14;;;9.21
47484;BMP280;54076;50.322;18.650;2023-12-20T01:02:35;98255.98;;;9.37
47484;BMP280;54076;50.322;18.650;2023-12-20T01:07:36;98288.23;;;9.40
47484;BMP280;54076;50.322;18.650;2023-12-20T01:12:37;98265.98;;;9.27
47484;BMP280;54076;50.322;18.650;2023-12-20T01:17:38;98271.32;;;9.46
47484;BMP280;54076;50.322;18.650;2023-12-20T01:22:39;98232.13;;;9.57
47484;BMP280;54076;50.322;18.650;2023-12-20T01:27:40;98236.01;;;9.58
47484;BMP280;54076;50.322;18.650;2023-12-20T01:32:41;98251.31;;;9.61
47484;BMP280;54076;50.322;18.650;2023-12-20T01:37:42;98257.15;;;9.41
47484;BMP280;54076;50.322;18.650;2023-12-20T01:42:43;98270.64;;;9.60
47484;BMP280;54076;50.322;18.650;2023-12-20T01:47:44;98258.26;;;9.59
47484;BMP280;54076;50.322;18.650;2023-12-20T01:52:45;98226.56;;;9.52
47484;BMP280;54076;50.322;18.650;2023-12-20T01:57:46;98237.87;;;9.49
47484;BMP280;54076;50.322;18.650;2023-12-20T02:02:48;98224.98;;;9.57
47484;BMP280;54076;50.322;18.650;2023-12-20T02:07:50;98213.19;;;9.70
47484;BMP280;54076;50.322;18.650;2023-12-20T02:12:51;98211.72;;;9.68
47484;BMP280;54076;50.322;18.650;2023-12-20T02:17:53;98233.44;;;9.64
47484;BMP280;54076;50.322;18.650;2023-12-20T02:22:54;98231.91;;;9.45
47484;BMP280;54076;50.322;18.650;2023-12-20T02:27:56;98215.77;;;9.44
47484;BMP280;54076;50.322;18.650;2023-12-20T02:32:59;98223.64;;;9.39
47484;BMP280;54076;50.322;18.650;2023-12-20T02:38:00;98212.92;;;9.42
47484;BMP280;54076;50.322;18.650;2023-12-20T02:43:01;98211.73;;;9.42
47484;BMP280;54076;50.322;18.650;2023-12-20T02:48:03;98202.10;;;9.32
47484;BMP280;54076;50.322;18.650;2023-12-20T02:53:04;98214.73;;;9.30
47484;BMP280;54076;50.322;18.650;2023-12-20T02:58:05;98223.05;;;9.14
47484;BMP280;54076;50.322;18.650;2023-12-20T03:03:06;98222.95;;;9.08
47484;BMP280;54076;50.322;18.650;2023-12-20T03:08:07;98215.89;;;9.02
47484;BMP280;54076;50.322;18.650;2023-12-20T03:13:08;98211.81;;;8.78
47484;BMP280;54076;50.322;18.650;2023-12-20T03:18:09;98205.79;;;8.80
47484;BMP280;54076;50.322;18.650;2023-12-20T03:23:10;98209.76;;;8.95
47484;BMP280;54076;50.322;18.650;2023-12-20T03:28:11;98203.80;;;8.84
47484;BMP280;54076;50.322;18.650;2023-12-20T03:33:12;98206.59;;;8.91
47484;BMP280;54076;50.322;18.650;2023-12-20T03:38:13;98202.56;;;8.84
47484;BMP280;54076;50.322;18.650;2023-12-20T03:43:14;98201.86;;;8.79
47484;BMP280;54076;50.322;18.650;2023-12-20T03:48:15;98202.33;;;8.78
47484;BMP280;54076;50.322;18.650;2023-12-20T03:53:16;98196.05;;;8.48
47484;BMP280;54076;50.322;18.650;2023-12-20T03:58:17;98190.23;;;8.36
47484;BMP280;54076;50.322;18.650;2023-12-20T04:03:18;98201.00;;;8.24
47484;BMP280;54076;50.322;18.650;2023-12-20T04:08:19;98197.56;;;8.23
47484;BMP280;54076;50.322;18.650;2023-12-20T04:13:20;98205.67;;;8.04
47484;BMP280;54076;50.322;18.650;2023-12-20T04:18:21;98208.24;;;7.98
47484;BMP280;54076;50.322;18.650;2023-12-20T04:23:22;98210.17;;;7.85
47484;BMP280;54076;50.322;18.650;2023-12-20T04:28:22;98207.66;;;7.84
47484;BMP280;54076;50.322;18.650;2023-12-20T04:33:23;98192.20;;;7.82
47484;BMP280;54076;50.322;18.650;2023-12-20T04:38:25;98191.20;;;7.77
47484;BMP280;54076;50.322;18.650;2023-12-20T04:43:26;98193.99;;;7.80
47484;BMP280;54076;50.322;18.650;2023-12-20T04:48:27;98187.73;;;7.84
47484;BMP280;54076;50.322;18.650;2023-12-20T04:53:28;98181.61;;;7.80
47484;BMP280;54076;50.322;18.650;2023-12-20T04:58:29;98183.02;;;7.98
47484;BMP280;54076;50.322;18.650;2023-12-20T05:03:30;98181.83;;;8.02
47484;BMP280;54076;50.322;18.650;2023-12-20T05:08:31;98184.04;;;7.87
47484;BMP280;54076;50.322;18.650;2023-12-20T05:13:32;98175.55;;;7.73
47484;BMP280;54076;50.322;18.650;2023-12-20T05:18:33;98172.00;;;7.63
47484;BMP280;54076;50.322;18.650;2023-12-20T05:23:34;98175.98;;;7.70
47484;BMP280;54076;50.322;18.650;2023-12-20T05:28:35;98181.79;;;7.76
47484;BMP280;54076;50.322;18.650;2023-12-20T05:33:36;98182.08;;;7.78
47484;BMP280;54076;50.322;18.650;2023-12-20T05:38:37;98180.04;;;7.81
47484;BMP280;54076;50.322;18.650;2023-12-20T05:43:39;98179.73;;;7.80
47484;BMP280;54076;50.322;18.650;2023-12-20T05:48:40;98177.48;;;7.70
47484;BMP280;54076;50.322;18.650;2023-12-20T05:53:41;98176.73;;;7.67
47484;BMP280;54076;50.322;18.650;2023-12-20T05:58:42;98183.70;;;7.47
47484;BMP280;54076;50.322;18.650;2023-12-20T06:03:44;98185.05;;;7.56
47484;BMP280;54076;50.322;18.650;2023-12-20T06:08:46;98190.46;;;7.40
47484;BMP280;54076;50.322;18.650;2023-12-20T06:13:47;98193.80;;;7.55
47484;BMP280;54076;50.322;18.650;2023-12-20T06:18:49;98190.91;;;7.30
47484;BMP280;54076;50.322;18.650;2023-12-20T06:23:50;98192.94;;;7.23
47484;BMP280;54076;50.322;18.650;2023-12-20T06:28:51;98192.83;;;7.24
47484;BMP280;54076;50.322;18.650;2023-12-20T06:33:52;98193.68;;;7.19
47484;BMP280;54076;50.322;18.650;2023-12-20T06:38:58;98200.54;;;7.05
47484;BMP280;54076;50.322;18.650;2023-12-20T06:43:59;98205.77;;;7.15
47484;BMP280;54076;50.322;18.650;2023-12-20T06:49:00;98204.63;;;7.09
47484;BMP280;54076;50.322;18.650;2023-12-20T06:54:01;98210.48;;;6.98
47484;BMP280;54076;50.322;18.650;2023-12-20T06:59:03;98215.78;;;7.10
47484;BMP280;54076;50.322;18.650;2023-12-20T07:04:04;98215.86;;;6.97
47484;BMP280;54076;50.322;18.650;2023-12-20T07:09:05;98217.17;;;6.89
47484;BMP280;54076;50.322;18.650;2023-12-20T07:14:07;98215.48;;;6.96
47484;BMP280;54076;50.322;18.650;2023-12-20T07:19:07;98218.07;;;6.95
47484;BMP280;54076;50.322;18.650;2023-12-20T07:24:08;98219.77;;;7.14
47484;BMP280;54076;50.322;18.650;2023-12-20T07:29:09;98218.69;;;7.30
47484;BMP280;54076;50.322;18.650;2023-12-20T07:34:11;98221.46;;;7.33
47484;BMP280;54076;50.322;18.650;2023-12-20T07:39:12;98226.27;;;7.49
47484;BMP280;54076;50.322;18.650;2023-12-20T07:44:13;98233.39;;;7.35
47484;BMP280;54076;50.322;18.650;2023-12-20T07:49:14;98237.80;;;7.33
47484;BMP280;54076;50.322;18.650;2023-12-20T07:54:15;98239.77;;;7.27
47484;BMP280;54076;50.322;18.650;2023-12-20T07:59:16;98234.95;;;7.26
47484;BMP280;54076;50.322;18.650;2023-12-20T08:04:17;98230.38;;;7.07
47484;BMP280;54076;50.322;18.650;2023-12-20T08:09:18;98235.30;;;7.08
47484;BMP280;54076;50.322;18.650;2023-12-20T08:14:21;98231.86;;;7.09
47484;BMP280;54076;50.322;18.650;2023-12-20T08:19:22;98237.09;;;7.03
47484;BMP280;54076;50.322;18.650;2023-12-20T08:24:23;98231.89;;;6.98
47484;BMP280;54076;50.322;18.650;2023-12-20T08:29:24;98234.36;;;6.92
47484;BMP280;54076;50.322;18.650;2023-12-20T08:34:25;98230.66;;;6.93
47484;BMP280;54076;50.322;18.650;2023-12-20T08:39:26;98227.97;;;6.98
47484;BMP280;54076;50.322;18.650;2023-12-20T08:44:27;98233.70;;;7.05
47484;BMP280;54076;50.322;18.650;2023-12-20T08:49:28;98234.80;;;6.99
47484;BMP280;54076;50.322;18.650;2023-12-20T08:54:29;98241.27;;;7.00
47484;BMP280;54076;50.322;18.650;2023-12-20T08:59:30;98245.27;;;7.02
47484;BMP280;54076;50.322;18.650;2023-12-20T09:04:31;98248.40;;;7.06
47484;BMP280;54076;50.322;18.650;2023-12-20T09:09:32;98242.29;;;6.88
47484;BMP280;54076;50.322;18.650;2023-12-20T09:14:34;98240.79;;;6.88
47484;BMP280;54076;50.322;18.650;2023-12-20T09:19:35;98239.57;;;7.07
47484;BMP280;54076;50.322;18.650;2023-12-20T09:24:36;98239.02;;;7.01
47484;BMP280;54076;50.322;18.650;2023-12-20T09:29:37;98244.75;;;7.04
47484;BMP280;54076;50.322;18.650;2023-12-20T09:34:38;98242.95;;;7.16
47484;BMP280;54076;50.322;18.650;2023-12-20T09:39:39;98240.63;;;7.12
47484;BMP280;54076;50.322;18.650;2023-12-20T09:44:40;98239.44;;;7.06
47484;BMP280;54076;50.322;18.650;2023-12-20T09:49:43;98236.21;;;7.01
47484;BMP280;54076;50.322;18.650;2023-12-20T09:54:47;98233.98;;;7.05
47484;BMP280;54076;50.322;18.650;2023-12-20T09:59:50;98235.27;;;7.08
47484;BMP280;54076;50.322;18.650;2023-12-20T10:04:51;98233.38;;;7.10
47484;BMP280;54076;50.322;18.650;2023-12-20T10:09:54;98224.35;;;6.94
47484;BMP280;54076;50.322;18.650;2023-12-20T10:14:57;98226.92;;;7.23
47484;BMP280;54076;50.322;18.650;2023-12-20T10:19:58;98222.13;;;7.53
47484;BMP280;54076;50.322;18.650;2023-12-20T10:24:59;98222.77;;;7.58
47484;BMP280;54076;50.322;18.650;2023-12-20T10:30:00;98213.85;;;6.96
47484;BMP280;54076;50.322;18.650;2023-12-20T10:35:01;98216.94;;;7.06
47484;BMP280;54076;50.322;18.650;2023-12-20T10:40:04;98217.46;;;7.23
47484;BMP280;54076;50.322;18.650;2023-12-20T10:45:07;98216.80;;;7.22
47484;BMP280;54076;50.322;18.650;2023-12-20T10:50:08;98218.33;;;7.20
47484;BMP280;54076;50.322;18.650;2023-12-20T10:55:10;98214.80;;;7.38
47484;BMP280;54076;50.322;18.650;2023-12-20T11:00:14;98212.46;;;7.43
47484;BMP280;54076;50.322;18.650;2023-12-20T11:11:04;98210.49;;;7.42
47484;BMP280;54076;50.322;18.650;2023-12-20T11:16:07;98201.08;;;7.58
47484;BMP280;54076;50.322;18.650;2023-12-20T11:21:10;98201.21;;;7.69
47484;BMP280;54076;50.322;18.650;2023-12-20T11:26:15;98199.40;;;7.62
47484;BMP280;54076;50.322;18.650;2023-12-20T11:31:16;98194.01;;;7.89
47484;BMP280;54076;50.322;18.650;2023-12-20T11:36:25;98193.16;;;7.79
47484;BMP280;54076;50.322;18.650;2023-12-20T11:41:26;98205.81;;;7.62
47484;BMP280;54076;50.322;18.650;2023-12-20T11:46:28;98202.97;;;7.59
47484;BMP280;54076;50.322;18.650;2023-12-20T11:51:29;98186.80;;;7.71
47484;BMP280;54076;50.322;18.650;2023-12-20T11:56:30;98175.78;;;7.94
47484;BMP280;54076;50.322;18.650;2023-12-20T12:01:31;98175.05;;;8.12
47484;BMP280;54076;50.322;18.650;2023-12-20T12:06:33;98171.67;;;8.18
47484;BMP280;54076;50.322;18.650;2023-12-20T12:11:34;98168.32;;;8.09
47484;BMP280;54076;50.322;18.650;2023-12-20T12:16:35;98172.95;;;8.18
47484;BMP280;54076;50.322;18.650;2023-12-20T12:21:36;98172.58;;;8.24
47484;BMP280;54076;50.322;18.650;2023-12-20T12:26:38;98170.26;;;8.32
47484;BMP280;54076;50.322;18.650;2023-12-20T12:31:39;98167.52;;;8.28
47484;BMP280;54076;50.322;18.650;2023-12-20T12:36:40;98169.52;;;8.30
47484;BMP280;54076;50.322;18.650;2023-12-20T12:41:41;98164.80;;;8.28
47484;BMP280;54076;50.322;18.650;2023-12-20T12:46:42;98159.55;;;8.20
47484;BMP280;54076;50.322;18.650;2023-12-20T12:51:43;98156.36;;;8.19
47484;BMP280;54076;50.322;18.650;2023-12-20T12:56:45;98158.85;;;8.24
47484;BMP280;54076;50.322;18.650;2023-12-20T13:01:48;98144.53;;;8.15
47484;BMP280;54076;50.322;18.650;2023-12-20T13:06:49;98135.52;;;8.06
47484;BMP280;54076;50.322;18.650;2023-12-20T13:11:50;98136.29;;;8.22
47484;BMP280;54076;50.322;18.650;2023-12-20T13:16:51;98140.66;;;8.33
47484;BMP280;54076;50.322;18.650;2023-12-20T13:21:53;98133.11;;;8.34
47484;BMP280;54076;50.322;18.650;2023-12-20T13:39:27;98150.55;;;8.29
47484;BMP280;54076;50.322;18.650;2023-12-20T13:44:28;98150.98;;;8.26
47484;BMP280;54076;50.322;18.650;2023-12-20T13:49:30;98140.34;;;8.17
47484;BMP280;54076;50.322;18.650;2023-12-20T13:54:30;98141.60;;;8.24
47484;BMP280;54076;50.322;18.650;2023-12-20T13:59:32;98150.17;;;8.15
47484;BMP280;54076;50.322;18.650;2023-12-20T14:04:33;98160.22;;;8.30
47484;BMP280;54076;50.322;18.650;2023-12-20T14:09:37;98157.89;;;8.40
47484;BMP280;54076;50.322;18.650;2023-12-20T14:14:38;98143.89;;;8.24
47484;BMP280;54076;50.322;18.650;2023-12-20T14:19:39;98145.98;;;8.05
47484;BMP280;54076;50.322;18.650;2023-12-20T14:24:41;98146.48;;;7.87
47484;BMP280;54076;50.322;18.650;2023-12-20T14:29:42;98143.33;;;7.92
47484;BMP280;54076;50.322;18.650;2023-12-20T14:34:43;98148.70;;;7.76
47484;BMP280;54076;50.322;18.650;2023-12-20T14:39:44;98148.44;;;7.64
47484;BMP280;54076;50.322;18.650;2023-12-20T14:44:46;98150.27;;;7.79
47484;BMP280;54076;50.322;18.650;2023-12-20T14:49:47;98155.83;;;7.77
47484;BMP280;54076;50.322;18.650;2023-12-20T14:54:48;98157.21;;;7.66
47484;BMP280;54076;50.322;18.650;2023-12-20T14:59:50;98149.83;;;7.78
47484;BMP280;54076;50.322;18.650;2023-12-20T15:04:51;98156.61;;;7.80
47484;BMP280;54076;50.322;18.650;2023-12-20T15:09:56;98143.73;;;7.84
47484;BMP280;54076;50.322;18.650;2023-12-20T15:14:57;98143.91;;;7.80
47484;BMP280;54076;50.322;18.650;2023-12-20T15:19:58;98145.04;;;7.66
47484;BMP280;54076;50.322;18.650;2023-12-20T15:25:00;98139.66;;;7.69
47484;BMP280;54076;50.322;18.650;2023-12-20T15:30:02;98127.46;;;7.47
47484;BMP280;54076;50.322;18.650;2023-12-20T15:35:05;98118.49;;;7.37
47484;BMP280;54076;50.322;18.650;2023-12-20T15:40:11;98130.74;;;7.27
47484;BMP280;54076;50.322;18.650;2023-12-20T15:45:13;98127.31;;;7.28
47484;BMP280;54076;50.322;18.650;2023-12-20T15:50:15;98126.79;;;7.33
47484;BMP280;54076;50.322;18.650;2023-12-20T15:55:18;98135.23;;;7.14
47484;BMP280;54076;50.322;18.650;2023-12-20T16:00:19;98138.70;;;7.22
47484;BMP280;54076;50.322;18.650;2023-12-20T16:05:21;98140.35;;;7.28
47484;BMP280;54076;50.322;18.650;2023-12-20T16:10:23;98129.19;;;7.32
47484;BMP280;54076;50.322;18.650;2023-12-20T16:15:24;98127.11;;;7.11
47484;BMP280;54076;50.322;18.650;2023-12-20T16:20:25;98135.33;;;7.02
47484;BMP280;54076;50.322;18.650;2023-12-20T16:25:26;98135.20;;;7.03
47484;BMP280;54076;50.322;18.650;2023-12-20T16:30:28;98143.96;;;7.16
47484;BMP280;54076;50.322;18.650;2023-12-20T16:35:29;98145.60;;;7.16
47484;BMP280;54076;50.322;18.650;2023-12-20T16:40:30;98140.63;;;7.12
47484;BMP280;54076;50.322;18.650;2023-12-20T16:45:32;98141.52;;;7.25
47484;BMP280;54076;50.322;18.650;2023-12-20T16:50:33;98133.69;;;7.25
47484;BMP280;54076;50.322;18.650;2023-12-20T16:55:34;98120.68;;;7.04
47484;BMP280;54076;50.322;18.650;2023-12-20T17:00:36;98115.70;;;6.92
47484;BMP280;54076;50.322;18.650;2023-12-20T17:05:37;98120.81;;;6.94
47484;BMP280;54076;50.322;18.650;2023-12-20T17:10:38;98122.41;;;6.92
47484;BMP280;54076;50.322;18.650;2023-12-20T17:15:39;98119.02;;;6.86
47484;BMP280;54076;50.322;18.650;2023-12-20T17:20:42;98112.06;;;6.94
47484;BMP280;54076;50.322;18.650;2023-12-20T17:25:43;98110.77;;;6.86
47484;BMP280;54076;50.322;18.650;2023-12-20T17:30:45;98102.84;;;6.61
47484;BMP280;54076;50.322;18.650;2023-12-20T17:35:46;98104.25;;;6.75
47484;BMP280;54076;50.322;18.650;2023-12-20T17:40:48;98102.06;;;6.74
47484;BMP280;54076;50.322;18.650;2023-12-20T17:45:50;98102.30;;;6.67
47484;BMP280;54076;50.322;18.650;2023-12-20T17:50:51;98113.02;;;6.66
47484;BMP280;54076;50.322;18.650;2023-12-20T17:55:52;98116.77;;;6.67
47484;BMP280;54076;50.322;18.650;2023-12-20T18:00:54;98111.17;;;6.63
47484;BMP280;54076;50.322;18.650;2023-12-20T18:05:55;98103.54;;;6.60
47484;BMP280;54076;50.322;18.650;2023-12-20T18:10:56;98110.39;;;6.56
47484;BMP280;54076;50.322;18.650;2023-12-20T18:15:57;98109.23;;;6.49
47484;BMP280;54076;50.322;18.650;2023-12-20T18:20:58;98105.91;;;6.57
47484;BMP280;54076;50.322;18.650;2023-12-20T18:26:00;98110.79;;;6.53
47484;BMP280;54076;50.322;18.650;2023-12-20T18:31:02;98106.34;;;6.61
47484;BMP280;54076;50.322;18.650;2023-12-20T18:36:04;98103.85;;;6.55
47484;BMP280;54076;50.322;18.650;2023-12-20T18:41:05;98100.34;;;6.55
47484;BMP280;54076;50.322;18.650;2023-12-20T18:46:06;98089.72;;;6.56
47484;BMP280;54076;50.322;18.650;2023-12-20T18:51:08;98090.02;;;6.69
47484;BMP280;54076;50.322;18.650;2023-12-20T18:56:09;98089.17;;;6.75
47484;BMP280;54076;50.322;18.650;2023-12-20T19:01:10;98085.12;;;6.77
47484;BMP280;54076;50.322;18.650;2023-12-20T19:06:11;98103.80;;;6.71
47484;BMP280;54076;50.322;18.650;2023-12-20T19:11:13;98103.83;;;6.74
47484;BMP280;54076;50.322;18.650;2023-12-20T19:16:14;98105.75;;;6.74
47484;BMP280;54076;50.322;18.650;2023-12-20T19:21:15;98114.45;;;6.65
47484;BMP280;54076;50.322;18.650;2023-12-20T19:26:16;98102.23;;;6.49
47484;BMP280;54076;50.322;18.650;2023-12-20T19:31:17;98102.27;;;6.43
47484;BMP280;54076;50.322;18.650;2023-12-20T19:36:20;98097.98;;;6.32
47484;BMP280;54076;50.322;18.650;2023-12-20T19:41:21;98096.52;;;6.20
47484;BMP280;54076;50.322;18.650;2023-12-20T19:46:22;98091.44;;;6.31
47484;BMP280;54076;50.322;18.650;2023-12-20T19:51:24;98090.29;;;6.38
47484;BMP280;54076;50.322;18.650;2023-12-20T19:56:25;98090.88;;;6.30
47484;BMP280;54076;50.322;18.650;2023-12-20T20:01:26;98097.98;;;6.32
47484;BMP280;54076;50.322;18.650;2023-12-20T20:06:30;98099.11;;;6.38
47484;BMP280;54076;50.322;18.650;2023-12-20T20:11:32;98091.00;;;6.37
47484;BMP280;54076;50.322;18.650;2023-12-20T20:16:33;98087.23;;;6.44
47484;BMP280;54076;50.322;18.650;2023-12-20T20:21:34;98083.82;;;6.52
47484;BMP280;54076;50.322;18.650;2023-12-20T20:26:35;98101.71;;;6.53
47484;BMP280;54076;50.322;18.650;2023-12-20T20:31:36;98092.51;;;6.48
47484;BMP280;54076;50.322;18.650;2023-12-20T20:36:38;98083.77;;;6.25
47484;BMP280;54076;50.322;18.650;2023-12-20T20:41:39;98069.99;;;6.23
47484;BMP280;54076;50.322;18.650;2023-12-20T20:46:40;98073.44;;;6.29
47484;BMP280;54076;50.322;18.650;2023-12-20T20:51:42;98077.25;;;6.30
47484;BMP280;54076;50.322;18.650;2023-12-20T20:56:43;98086.28;;;6.27
47484;BMP280;54076;50.322;18.650;2023-12-20T21:01:44;98086.49;;;6.24
47484;BMP280;54076;50.322;18.650;2023-12-20T21:06:46;98088.95;;;6.29
47484;BMP280;54076;50.322;18.650;2023-12-20T21:11:49;98091.23;;;6.39
47484;BMP280;54076;50.322;18.650;2023-12-20T21:16:50;98089.81;;;6.52
47484;BMP280;54076;50.322;18.650;2023-12-20T21:21:51;98087.19;;;6.39
47484;BMP280;54076;50.322;18.650;2023-12-20T21:26:52;98086.55;;;6.46
47484;BMP280;54076;50.322;18.650;2023-12-20T21:31:53;98083.27;;;6.48
47484;BMP280;54076;50.322;18.650;2023-12-20T21:36:54;98082.09;;;6.58
47484;BMP280;54076;50.322;18.650;2023-12-20T21:41:58;98088.64;;;6.80
47484;BMP280;54076;50.322;18.650;2023-12-20T21:46:59;98091.91;;;6.91
47484;BMP280;54076;50.322;18.650;2023-12-20T21:52:00;98086.86;;;6.85
47484;BMP280;54076;50.322;18.650;2023-12-20T21:57:02;98085.02;;;6.88
47484;BMP280;54076;50.322;18.650;2023-12-20T22:02:03;98078.09;;;6.81
47484;BMP280;54076;50.322;18.650;2023-12-20T22:07:05;98078.51;;;6.80
47484;BMP280;54076;50.322;18.650;2023-12-20T22:12:07;98064.33;;;6.89
47484;BMP280;54076;50.322;18.650;2023-12-20T22:17:09;98069.84;;;6.85
47484;BMP280;54076;50.322;18.650;2023-12-20T22:22:11;98061.79;;;6.94
47484;BMP280;54076;50.322;18.650;2023-12-20T22:27:12;98066.38;;;6.94
47484;BMP280;54076;50.322;18.650;2023-12-20T22:32:14;98054.73;;;7.00
47484;BMP280;54076;50.322;18.650;2023-12-20T22:37:15;98051.44;;;6.93
47484;BMP280;54076;50.322;18.650;2023-12-20T22:42:16;98046.44;;;6.95
47484;BMP280;54076;50.322;18.650;2023-12-20T22:47:19;98041.82;;;7.00
47484;BMP280;54076;50.322;18.650;2023-12-20T22:52:20;98034.04;;;7.07
47484;BMP280;54076;50.322;18.650;2023-12-20T22:57:25;98031.85;;;7.19
47484;BMP280;54076;50.322;18.650;2023-12-20T23:02:26;98020.92;;;7.39
47484;BMP280;54076;50.322;18.650;2023-12-20T23:07:27;98019.66;;;7.48
47484;BMP280;54076;50.322;18.650;2023-12-20T23:12:28;98012.60;;;7.55
47484;BMP280;54076;50.322;18.650;2023-12-20T23:17:32;98000.23;;;7.58
47484;BMP280;54076;50.322;18.650;2023-12-20T23:22:34;98000.35;;;7.59
47484;BMP280;54076;50.322;18.650;2023-12-20T23:27:35;97998.72;;;7.55
47484;BMP280;54076;50.322;18.650;2023-12-20T23:32:39;97991.73;;;7.41
47484;BMP280;54076;50.322;18.650;2023-12-20T23:37:40;97993.01;;;7.57
47484;BMP280;54076;50.322;18.650;2023-12-20T23:42:41;97993.59;;;7.45
47484;BMP280;54076;50.322;18.650;2023-12-20T23:47:44;97981.23;;;7.35
47484;BMP280;54076;50.322;18.650;2023-12-20T23:52:45;97964.61;;;7.40
47484;BMP280;54076;50.322;18.650;2023-12-20T23:57:48;97961.11;;;7.32
